Nrp Polar — CTEJ — position and weather

sailwx.info

Track history (hours):
 
Tides and Currents Weather Stations Pressure Air Temp Water Temp Dewpoint Dewpoint Depression Visibility Wind Speed Wind Dir Waves Ship Positions

Nrp Polar

Last reported at 2015-May-24 16:13 UTC. Time now 2015-May-26 07:42 UTC.
Position N 38°40' W 009°09'.

; draft 3 m.

Type: Sailing vessel. MMSI: 263142000.

Date/timePositionNaut miles runAvg speedWind from/ knotsBaromVisibWave heightAir tempDewpointWater temp
2015-May-24 16:13N 38°40' W 009°09'0 0.4
2015-May-24 15:32N 38°40' W 009°09'2 2.2
2015-May-24 14:33N 38°42' W 009°07'4 4.3
2015-May-24 13:33N 38°41' W 009°13'2 2.2
2015-May-24 12:32N 38°42' W 009°15'1 0.7
2015-May-24 11:33N 38°42' W 009°15'0 0.0
2015-May-24 10:33N 38°42' W 009°15'0 0.0
2015-May-24 09:33N 38°42' W 009°15'3 3.2
2015-May-24 08:33N 38°40' W 009°18'5 5.3
2015-May-24 07:33N 38°42' W 009°25'0 0.0
2015-May-23 16:10N 38°42' W 009°25'1 1.7
2015-May-23 15:33N 38°41' W 009°24'4 4.3
2015-May-23 14:33N 38°40' W 009°18'5 5.3
2015-May-23 13:33N 38°41' W 009°12'3 2.5
2015-May-23 12:32N 38°42' W 009°15'0 0.0
2015-May-23 11:32N 38°42' W 009°15'0 0.0
2015-May-23 10:33N 38°42' W 009°15'1 0.6
2015-May-23 09:32N 38°42' W 009°16'3 3.4
2015-May-23 08:33N 38°40' W 009°19'5 4.2
2015-May-23 07:28N 38°42' W 009°25'0 0.0
2015-May-22 16:18N 38°42' W 009°25'2 2.4
2015-May-22 15:33N 38°41' W 009°23'5 4.6
2015-May-22 14:33N 38°41' W 009°17'6 6.1
2015-May-22 13:31N 38°42' W 009°09'1 1.2
2015-May-22 12:34N 38°40' W 009°09'0 0.0
2015-May-22 11:33N 38°40' W 009°09'0 0.0
2015-May-22 10:27N 38°40' W 009°09'0 0.0
2015-May-22 09:30N 38°40' W 009°09'0 0.0
2015-May-21 10:33N 38°40' W 009°09'0 0.0
2015-May-19 09:33N 38°40' W 009°09'  
Track history (hours):
 
Tides and Currents Weather Stations Pressure Air Temp Water Temp Dewpoint Dewpoint Depression Visibility Wind Speed Wind Dir Waves Ship Positions

Nrp Polar

Last reported at 2015-May-24 16:13 UTC. Time now 2015-May-26 07:42 UTC.
Position N 38°40' W 009°09'.

; draft 3 m.

Type: Sailing vessel. MMSI: 263142000.

Date/timePositionNaut miles runAvg speedWind from/ knotsBaromVisibWave heightAir tempDewpointWater temp
2015-May-24 16:13N 38°40' W 009°09'0 0.4
2015-May-24 15:32N 38°40' W 009°09'2 2.2
2015-May-24 14:33N 38°42' W 009°07'4 4.3
2015-May-24 13:33N 38°41' W 009°13'2 2.2
2015-May-24 12:32N 38°42' W 009°15'1 0.7
2015-May-24 11:33N 38°42' W 009°15'0 0.0
2015-May-24 10:33N 38°42' W 009°15'0 0.0
2015-May-24 09:33N 38°42' W 009°15'3 3.2
2015-May-24 08:33N 38°40' W 009°18'5 5.3
2015-May-24 07:33N 38°42' W 009°25'0 0.0
2015-May-23 16:10N 38°42' W 009°25'1 1.7
2015-May-23 15:33N 38°41' W 009°24'4 4.3
2015-May-23 14:33N 38°40' W 009°18'5 5.3
2015-May-23 13:33N 38°41' W 009°12'3 2.5
2015-May-23 12:32N 38°42' W 009°15'0 0.0
2015-May-23 11:32N 38°42' W 009°15'0 0.0
2015-May-23 10:33N 38°42' W 009°15'1 0.6
2015-May-23 09:32N 38°42' W 009°16'3 3.4
2015-May-23 08:33N 38°40' W 009°19'5 4.2
2015-May-23 07:28N 38°42' W 009°25'0 0.0
2015-May-22 16:18N 38°42' W 009°25'2 2.4
2015-May-22 15:33N 38°41' W 009°23'5 4.6
2015-May-22 14:33N 38°41' W 009°17'6 6.1
2015-May-22 13:31N 38°42' W 009°09'1 1.2
2015-May-22 12:34N 38°40' W 009°09'0 0.0
2015-May-22 11:33N 38°40' W 009°09'0 0.0
2015-May-22 10:27N 38°40' W 009°09'0 0.0
2015-May-22 09:30N 38°40' W 009°09'0 0.0
2015-May-21 10:33N 38°40' W 009°09'0 0.0
2015-May-19 09:33N 38°40' W 009°09'  

Dump ship's entire track history